Nearby METAR Reports

 

EGQS - Lossiemouth Raf, United Kingdom
Distance from station: NW 60mi, 97km
Updated: 17/11/2019 22:50
Clear
Clear
 Wind from WSW
Wind: WSW 12 mph , 19 km/h
Temperature: 1°C
Wind Chill: -4°C
Dew Point: 0°C
Humidity: 93%
Barometer: 1019 hPa
Summary: Clear
Visibility: greater than 7 miles , 10 km
2019/11/17 22:50 EGQS 172250Z 24010KT CAVOK 01/M00 Q1019 RMK BLU